createdAt,value
2022-10-22T00:01:54.397Z,10.48
2022-10-22T00:06:56.210Z,10.52
2022-10-22T00:11:57.811Z,10.58
2022-10-22T00:17:01.063Z,10.62
2022-10-22T00:22:05.669Z,10.61
2022-10-22T00:27:09.131Z,10.58
2022-10-22T00:32:11.046Z,10.50
2022-10-22T00:37:12.686Z,10.47
2022-10-22T00:42:20.642Z,10.45
2022-10-22T00:47:23.217Z,10.42
2022-10-22T00:52:25.182Z,10.43
2022-10-22T00:57:27.624Z,10.43
2022-10-22T01:02:29.270Z,10.44
2022-10-22T01:07:31.309Z,10.46
2022-10-22T01:12:45.285Z,10.48
2022-10-22T01:17:55.911Z,10.49
2022-10-22T01:23:21.353Z,10.55
2022-10-22T01:28:41.683Z,10.55
2022-10-22T01:33:44.914Z,10.59
2022-10-22T01:38:47.184Z,10.61
2022-10-22T01:43:49.254Z,10.67
2022-10-22T01:49:03.192Z,10.71
2022-10-22T01:54:32.027Z,10.72
2022-10-22T01:59:54.983Z,10.73
2022-10-22T02:05:24.772Z,10.73
2022-10-22T02:10:27.434Z,10.74
2022-10-22T02:15:29.842Z,10.75
2022-10-22T02:20:33.630Z,10.74
2022-10-22T02:25:37.198Z,10.74
2022-10-22T02:30:42.653Z,10.71
2022-10-22T02:35:44.690Z,10.72
2022-10-22T02:40:46.707Z,10.74
2022-10-22T02:45:48.627Z,10.74
2022-10-22T02:50:50.215Z,10.75
2022-10-22T02:55:51.801Z,10.77
2022-10-22T03:00:53.578Z,10.75
2022-10-22T03:05:55.194Z,10.73
2022-10-22T03:10:56.782Z,10.75
2022-10-22T03:15:58.374Z,10.78
2022-10-22T03:21:32.555Z,10.80
2022-10-22T03:26:34.276Z,10.84
2022-10-22T03:31:35.912Z,10.85
2022-10-22T03:36:38.096Z,10.85
2022-10-22T03:41:39.695Z,10.82
2022-10-22T03:46:41.664Z,10.82
2022-10-22T03:51:43.423Z,10.83
2022-10-22T03:56:45.053Z,10.85
2022-10-22T04:01:46.651Z,10.85
2022-10-22T04:06:48.277Z,10.87
2022-10-22T04:11:49.895Z,10.85
2022-10-22T04:16:51.506Z,10.84
2022-10-22T04:21:53.145Z,10.84
2022-10-22T04:26:55.535Z,10.84
2022-10-22T04:31:57.173Z,10.84
2022-10-22T04:36:58.886Z,10.82
2022-10-22T04:42:00.560Z,10.81
2022-10-22T04:47:02.269Z,10.80
2022-10-22T04:52:03.965Z,10.76
2022-10-22T04:57:05.608Z,10.74
2022-10-22T05:02:07.245Z,10.73
2022-10-22T05:07:08.886Z,10.72
2022-10-22T05:12:10.498Z,10.71
2022-10-22T05:17:12.170Z,10.69
2022-10-22T05:22:13.755Z,10.69
2022-10-22T05:27:15.368Z,10.66
2022-10-22T05:32:16.989Z,10.65
2022-10-22T05:37:18.613Z,10.62
2022-10-22T05:42:20.187Z,10.64
2022-10-22T05:47:21.993Z,10.67
2022-10-22T05:52:24.407Z,10.71
2022-10-22T05:57:26.011Z,10.77
2022-10-22T06:02:27.710Z,10.80
2022-10-22T06:07:29.362Z,10.83
2022-10-22T06:12:30.969Z,10.86
2022-10-22T06:17:32.635Z,10.87
2022-10-22T06:22:34.328Z,10.88
2022-10-22T06:27:35.917Z,10.90
2022-10-22T06:32:37.667Z,10.93
2022-10-22T06:37:39.854Z,10.95
2022-10-22T06:42:41.952Z,10.97
2022-10-22T06:47:44.110Z,10.98
2022-10-22T06:52:45.891Z,10.97
2022-10-22T06:57:47.530Z,10.99
2022-10-22T07:02:56.459Z,11.04
2022-10-22T07:08:00.846Z,11.07
2022-10-22T07:13:02.555Z,11.07
2022-10-22T07:18:04.766Z,11.06
2022-10-22T07:23:06.381Z,11.07
2022-10-22T07:28:08.230Z,11.09
2022-10-22T07:33:10.063Z,11.08
2022-10-22T07:38:11.688Z,11.07
2022-10-22T07:43:13.272Z,11.04
2022-10-22T07:48:15.337Z,10.97
2022-10-22T07:53:17.833Z,10.92
2022-10-22T07:58:19.937Z,10.85
2022-10-22T08:03:21.558Z,10.83
2022-10-22T08:08:25.943Z,10.84
2022-10-22T08:13:30.715Z,10.98
2022-10-22T08:18:32.414Z,11.17
2022-10-22T08:23:34.447Z,11.28
2022-10-22T08:28:37.171Z,11.46
2022-10-22T08:33:39.460Z,11.37
2022-10-22T08:38:41.058Z,11.46
2022-10-22T08:44:19.824Z,11.67
2022-10-22T08:49:26.787Z,11.89
2022-10-22T08:54:37.873Z,12.13
2022-10-22T08:59:52.792Z,12.24
2022-10-22T09:05:02.692Z,12.26
2022-10-22T09:10:06.108Z,12.32
2022-10-22T09:15:13.592Z,12.44
2022-10-22T09:20:33.358Z,12.58
2022-10-22T09:25:37.226Z,12.73
2022-10-22T09:30:39.933Z,12.92
2022-10-22T09:35:51.434Z,13.17
2022-10-22T09:40:55.398Z,13.42
2022-10-22T09:46:03.110Z,13.49
2022-10-22T09:51:16.871Z,13.73
2022-10-22T09:56:29.415Z,13.84
2022-10-22T10:01:38.616Z,13.80
2022-10-22T10:06:42.914Z,14.02
2022-10-22T10:12:02.835Z,14.16
2022-10-22T10:17:13.523Z,14.28
2022-10-22T10:22:33.759Z,14.50
2022-10-22T10:27:38.807Z,14.79
2022-10-22T10:33:06.089Z,14.81
2022-10-22T10:38:17.538Z,14.81
2022-10-22T10:43:29.998Z,14.80
2022-10-22T10:48:57.032Z,14.74
2022-10-22T10:53:58.615Z,14.84
2022-10-22T10:59:10.050Z,15.07
2022-10-22T11:04:23.835Z,15.42
2022-10-22T11:09:28.906Z,15.62
2022-10-22T11:14:37.538Z,15.51
2022-10-22T11:19:53.775Z,15.34
2022-10-22T11:25:12.844Z,15.33
2022-10-22T11:30:20.385Z,15.31
2022-10-22T11:35:28.330Z,15.47
2022-10-22T11:40:32.373Z,15.69
2022-10-22T11:45:37.499Z,15.81
2022-10-22T11:50:53.041Z,15.93
2022-10-22T11:56:27.304Z,15.98
2022-10-22T12:01:41.897Z,16.08
2022-10-22T12:06:55.381Z,16.34
2022-10-22T12:12:04.330Z,16.55
2022-10-22T12:17:12.253Z,16.57
2022-10-22T12:22:28.166Z,16.46
2022-10-22T12:27:41.069Z,16.37
2022-10-22T12:32:42.975Z,16.26
2022-10-22T12:37:44.989Z,16.29
2022-10-22T12:42:48.988Z,16.34
2022-10-22T12:47:53.023Z,16.33
2022-10-22T12:52:55.696Z,16.44
2022-10-22T12:57:57.413Z,16.40
2022-10-22T13:03:01.699Z,16.49
2022-10-22T13:08:09.077Z,16.66
2022-10-22T13:13:45.660Z,16.79
2022-10-22T13:18:48.018Z,16.86
2022-10-22T13:23:55.126Z,16.90
2022-10-22T13:29:02.906Z,16.91
2022-10-22T13:34:11.775Z,16.94
2022-10-22T13:39:22.968Z,16.94
2022-10-22T13:44:25.411Z,16.96
2022-10-22T13:49:29.826Z,16.98
2022-10-22T13:54:34.899Z,16.99
2022-10-22T13:59:36.636Z,16.99
2022-10-22T14:04:40.358Z,17.07
2022-10-22T14:09:46.860Z,17.06
2022-10-22T14:14:48.503Z,16.99
2022-10-22T14:19:50.226Z,16.96
2022-10-22T14:24:52.552Z,16.87
2022-10-22T14:29:59.312Z,16.82
2022-10-22T14:35:03.977Z,16.82
2022-10-22T14:40:08.698Z,16.81
2022-10-22T14:45:21.080Z,16.80
2022-10-22T14:50:26.062Z,16.78
2022-10-22T14:55:36.366Z,16.74
2022-10-22T15:00:41.607Z,16.70
2022-10-22T15:05:46.609Z,16.77
2022-10-22T15:11:03.759Z,16.92
2022-10-22T15:16:13.607Z,16.92
2022-10-22T15:21:17.481Z,16.82
2022-10-22T15:26:19.114Z,16.68
2022-10-22T15:31:43.296Z,16.54
2022-10-22T15:36:44.890Z,16.38
2022-10-22T15:41:47.322Z,16.26
2022-10-22T15:46:54.777Z,16.12
2022-10-22T15:52:20.571Z,15.96
2022-10-22T15:57:24.263Z,15.83
2022-10-22T16:02:25.883Z,15.69
2022-10-22T16:07:27.489Z,15.55
2022-10-22T16:12:29.276Z,15.38
2022-10-22T16:17:30.881Z,15.20
2022-10-22T16:22:33.462Z,15.03
2022-10-22T16:27:35.122Z,14.84
2022-10-22T16:32:36.712Z,14.69
2022-10-22T16:37:39.222Z,14.55
2022-10-22T16:42:42.489Z,14.45
2022-10-22T16:47:46.891Z,14.35
2022-10-22T16:52:48.477Z,14.28
2022-10-22T16:57:53.467Z,14.20
2022-10-22T17:02:55.197Z,14.13
2022-10-22T17:07:56.786Z,14.11
2022-10-22T17:12:58.437Z,14.09
2022-10-22T17:18:00.549Z,14.01
2022-10-22T17:23:02.144Z,13.83
2022-10-22T17:28:03.853Z,13.62
2022-10-22T17:33:06.782Z,13.46
2022-10-22T17:38:10.904Z,13.48
2022-10-22T17:43:12.495Z,13.44
2022-10-22T17:48:14.095Z,13.27
2022-10-22T17:53:15.707Z,13.12
2022-10-22T17:58:17.634Z,13.02
2022-10-22T18:03:19.623Z,12.91
2022-10-22T18:08:24.073Z,12.83
2022-10-22T18:13:25.785Z,12.79
2022-10-22T18:18:27.566Z,12.74
2022-10-22T18:23:29.232Z,12.73
2022-10-22T18:28:30.865Z,12.67
2022-10-22T18:33:32.873Z,12.59
2022-10-22T18:38:34.935Z,12.53
2022-10-22T18:43:37.068Z,12.51
2022-10-22T18:48:38.735Z,12.42
2022-10-22T18:53:40.700Z,12.36
2022-10-22T18:58:46.107Z,12.36
2022-10-22T19:03:49.774Z,12.28
2022-10-22T19:08:51.563Z,12.21
2022-10-22T19:13:53.955Z,12.11
2022-10-22T19:19:06.809Z,12.05
2022-10-22T19:24:09.934Z,11.99
2022-10-22T19:29:11.684Z,11.89
2022-10-22T19:34:17.605Z,11.81
2022-10-22T19:39:19.338Z,11.78
2022-10-22T19:44:21.004Z,11.88
2022-10-22T19:49:23.133Z,12.01
2022-10-22T19:54:28.323Z,12.16
2022-10-22T19:59:32.078Z,12.28
2022-10-22T20:04:37.090Z,12.46
2022-10-22T20:09:38.728Z,12.63
2022-10-22T20:14:40.469Z,12.84
2022-10-22T20:19:42.131Z,13.00
2022-10-22T20:24:44.637Z,13.04
2022-10-22T20:29:46.244Z,12.97
2022-10-22T20:34:47.854Z,12.83
2022-10-22T20:39:50.074Z,12.75
2022-10-22T20:44:51.657Z,12.62
2022-10-22T20:49:53.367Z,12.43
2022-10-22T20:54:54.951Z,12.33
2022-10-22T20:59:57.494Z,12.28
2022-10-22T21:04:59.176Z,12.24
2022-10-22T21:10:00.837Z,12.17
2022-10-22T21:15:02.531Z,12.12
2022-10-22T21:20:04.498Z,12.14
2022-10-22T21:25:06.567Z,12.13
2022-10-22T21:30:08.566Z,12.03
2022-10-22T21:35:10.161Z,11.93
2022-10-22T21:40:12.252Z,11.85
2022-10-22T21:45:16.455Z,11.78
2022-10-22T21:50:20.369Z,11.68
2022-10-22T21:55:24.054Z,11.65
2022-10-22T22:00:25.940Z,11.63
2022-10-22T22:05:28.343Z,11.62
2022-10-22T22:10:30.049Z,11.53
2022-10-22T22:15:31.701Z,11.44
2022-10-22T22:20:33.378Z,11.37
2022-10-22T22:25:35.116Z,11.30
2022-10-22T22:30:36.830Z,11.28
2022-10-22T22:40:41.269Z,11.11
2022-10-22T22:45:42.884Z,11.03
2022-10-22T22:50:44.529Z,10.90
2022-10-22T22:55:46.164Z,10.82
2022-10-22T23:00:48.181Z,10.74
2022-10-22T23:05:49.905Z,10.61
2022-10-22T23:10:51.510Z,10.59
2022-10-22T23:15:53.103Z,10.59
2022-10-22T23:20:54.705Z,10.55
2022-10-22T23:25:56.366Z,10.56
2022-10-22T23:30:58.078Z,10.39
2022-10-22T23:36:02.973Z,10.32
2022-10-22T23:41:04.754Z,10.28
2022-10-22T23:46:08.503Z,10.26
2022-10-22T23:51:15.234Z,10.29
2022-10-22T23:56:18.063Z,10.31
